Time;durP1;ratioP1;P1;durP2;ratioP2;P2;SDS_P1;SDS_P2;PMS_P1;PMS_P2;Temp;Humidity;BMP_temperature;BMP_pressure;BME280_temperature;BME280_humidity;BME280_pressure;Samples;Min_cycle;Max_cycle;Signal;HPM_P1;HPM_P2
2021/09/09 00:01:22;;;;;;;16.20;10.80;;;;;;;19.24;78.23;156307.84;5068475;28;20437;-81
2021/09/09 00:03:59;;;;;;;11.70;10.50;;;;;;;19.24;78.39;156309.13;5072444;28;20442;-81
2021/09/09 00:06:35;;;;;;;10.90;9.80;;;;;;;19.23;78.36;156306.53;5056774;28;20937;-81
2021/09/09 00:09:12;;;;;;;11.10;10.00;;;;;;;19.21;78.56;156300.00;5056742;28;20454;-81
2021/09/09 00:11:47;;;;;;;11.23;10.10;;;;;;;19.19;78.65;156294.81;5055207;28;20450;-82
2021/09/09 00:14:24;;;;;;;10.83;9.73;;;;;;;19.16;78.66;156286.97;5073507;28;20450;-81
2021/09/09 00:16:59;;;;;;;11.13;9.97;;;;;;;19.08;79.29;156267.44;5068582;28;20874;-81
2021/09/09 00:19:36;;;;;;;12.70;10.83;;;;;;;19.06;79.16;156262.19;5054769;28;20450;-81
2021/09/09 00:22:13;;;;;;;11.97;10.73;;;;;;;19.03;79.36;156254.41;5057980;28;20454;-81
2021/09/09 00:24:50;;;;;;;11.50;10.27;;;;;;;19.03;79.24;156253.09;5060980;28;20439;-81
2021/09/09 00:27:26;;;;;;;12.60;10.40;;;;;;;19.02;79.41;156250.47;5072649;28;20545;-81
2021/09/09 00:30:02;;;;;;;11.50;10.40;;;;;;;19.00;79.22;156246.59;5071105;28;20450;-81
2021/09/09 00:32:37;;;;;;;12.57;11.00;;;;;;;18.96;79.36;156236.13;5071131;28;20794;-81
2021/09/09 00:35:14;;;;;;;11.40;9.90;;;;;;;18.96;79.41;156236.13;5063180;28;20457;-81
2021/09/09 00:37:49;;;;;;;11.53;10.43;;;;;;;18.94;79.54;156230.94;5071327;28;20852;-81
2021/09/09 00:40:26;;;;;;;10.80;9.80;;;;;;;18.92;79.79;156225.72;5071610;28;20446;-81
2021/09/09 00:43:02;;;;;;;12.83;10.97;;;;;;;18.87;79.87;156212.72;5071382;28;20453;-81
2021/09/09 00:45:38;;;;;;;12.30;11.10;;;;;;;18.85;80.11;156207.47;5055819;28;20446;-81
2021/09/09 00:48:13;;;;;;;13.00;9.93;;;;;;;18.82;80.02;156200.94;5073362;28;20433;-81
2021/09/09 00:50:49;;;;;;;11.13;10.03;;;;;;;18.81;80.02;156197.06;5071842;28;20454;-81
2021/09/09 00:53:25;;;;;;;11.73;10.47;;;;;;;18.78;80.22;156189.22;5070514;28;20446;-81
2021/09/09 00:56:02;;;;;;;13.47;11.40;;;;;;;18.74;80.60;156180.09;5061177;28;20913;-81
2021/09/09 00:58:39;;;;;;;12.10;10.87;;;;;;;18.71;80.84;156171.00;5057473;28;20462;-81
2021/09/09 01:01:14;;;;;;;15.43;11.00;;;;;;;18.68;81.02;156163.19;5057004;28;20439;-81
2021/09/09 01:03:51;;;;;;;12.07;10.87;;;;;;;18.70;80.59;156168.38;5069833;28;20438;-81
2021/09/09 01:06:27;;;;;;;11.73;10.43;;;;;;;18.71;80.90;156171.00;5067694;28;20431;-81
2021/09/09 01:09:03;;;;;;;11.37;10.03;;;;;;;18.72;80.69;156173.59;5054852;28;21012;-81
2021/09/09 01:11:40;;;;;;;11.67;10.43;;;;;;;18.71;80.82;156171.00;5071056;28;20442;-81
2021/09/09 01:14:16;;;;;;;12.63;10.57;;;;;;;18.67;80.80;156161.88;5071103;28;20449;-81
2021/09/09 01:16:52;;;;;;;10.90;9.80;;;;;;;18.69;80.80;156165.81;5070862;28;20521;-82
2021/09/09 01:19:28;;;;;;;11.57;10.47;;;;;;;18.67;80.84;156161.88;5060758;28;20929;-81
2021/09/09 01:22:04;;;;;;;11.50;10.30;;;;;;;18.66;80.78;156159.31;5078187;28;20928;-81
2021/09/09 01:24:41;;;;;;;11.10;10.00;;;;;;;18.62;81.06;156148.84;5069703;28;20785;-81
2021/09/09 01:27:17;;;;;;;11.77;10.57;;;;;;;18.61;81.15;156144.97;5065768;28;20538;-81
2021/09/09 01:29:53;;;;;;;11.40;10.30;;;;;;;18.57;81.57;156135.84;5067661;28;20455;-81
2021/09/09 01:32:29;;;;;;;15.20;10.47;;;;;;;18.57;81.25;156134.53;5060271;28;20477;-81
2021/09/09 01:35:05;;;;;;;11.43;10.33;;;;;;;18.59;81.36;156139.72;5053596;28;20813;-81
2021/09/09 01:37:40;;;;;;;13.20;11.77;;;;;;;18.56;81.58;156131.94;5061513;28;20536;-81
2021/09/09 01:40:27;;;;;;;11.57;10.47;;;;;;;18.54;81.75;156126.69;5071144;28;20789;-81
2021/09/09 01:43:03;;;;;;;12.10;10.20;;;;;;;18.57;81.68;156134.53;5067420;28;20953;-81
2021/09/09 01:45:38;;;;;;;11.10;9.90;;;;;;;18.57;81.44;156134.53;5066386;28;20445;-81
2021/09/09 01:48:14;;;;;;;11.70;10.60;;;;;;;18.55;81.36;156129.31;5071825;28;20438;-81
2021/09/09 01:50:50;;;;;;;12.00;10.80;;;;;;;18.46;81.76;156105.81;5072411;28;20481;-81
2021/09/09 01:53:25;;;;;;;13.93;11.00;;;;;;;18.46;81.92;156105.81;5072216;28;20450;-81
2021/09/09 01:56:02;;;;;;;11.80;10.50;;;;;;;18.48;82.00;156111.09;5056691;28;20441;-81
2021/09/09 01:58:38;;;;;;;14.33;10.60;;;;;;;18.42;82.19;156096.72;5071971;28;20494;-81
2021/09/09 02:01:13;;;;;;;12.10;10.90;;;;;;;18.38;82.48;156086.28;5063547;28;20802;-81
2021/09/09 02:03:49;;;;;;;12.17;10.97;;;;;;;18.37;82.48;156082.38;5052600;28;20461;-81
2021/09/09 02:06:24;;;;;;;12.40;11.10;;;;;;;18.36;82.48;156079.75;5069869;28;21190;-81
2021/09/09 02:09:00;;;;;;;12.57;9.97;;;;;;;18.33;82.59;156073.25;5063215;28;20949;-81
2021/09/09 02:11:37;;;;;;;14.40;11.03;;;;;;;18.33;82.57;156071.94;5071731;28;20446;-81
2021/09/09 02:14:12;;;;;;;10.90;9.80;;;;;;;18.34;82.73;156074.56;5044526;28;20485;-81
2021/09/09 02:16:48;;;;;;;15.40;11.67;;;;;;;18.33;82.50;156071.94;5071334;28;20445;-81
2021/09/09 02:19:23;;;;;;;12.03;9.90;;;;;;;18.31;82.52;156068.06;5064712;28;20557;-81
2021/09/09 02:21:58;;;;;;;12.77;11.33;;;;;;;18.25;82.70;156052.41;5058463;28;20429;-81
2021/09/09 02:24:34;;;;;;;15.00;10.57;;;;;;;18.23;83.15;156048.53;5074522;28;20453;-81
2021/09/09 02:27:11;;;;;;;12.87;11.03;;;;;;;18.18;83.61;156035.50;5066915;28;20426;-81
2021/09/09 02:29:46;;;;;;;11.77;10.57;;;;;;;18.13;83.67;156021.19;5074449;28;20912;-81
2021/09/09 02:32:21;;;;;;;14.47;10.93;;;;;;;18.10;84.02;156013.34;5072393;28;20812;-81
2021/09/09 02:34:57;;;;;;;12.17;10.97;;;;;;;18.11;83.97;156015.94;5063932;28;20442;-81
2021/09/09 02:37:32;;;;;;;13.50;10.60;;;;;;;18.08;83.93;156009.41;5061007;28;20465;-81
2021/09/09 02:40:10;;;;;;;13.30;11.87;;;;;;;18.08;84.02;156009.41;5073791;28;20548;-81
2021/09/09 02:42:47;;;;;;;12.33;11.03;;;;;;;18.06;83.85;156004.22;5065794;28;20439;-81
2021/09/09 02:45:23;;;;;;;11.57;10.37;;;;;;;18.02;84.34;155992.53;5068523;28;20450;-81
2021/09/09 02:47:58;;;;;;;13.13;11.70;;;;;;;18.00;84.40;155988.59;5058587;28;20434;-81
2021/09/09 02:50:34;;;;;;;12.50;11.40;;;;;;;17.99;84.54;155986.00;5067352;28;20459;-81
2021/09/09 02:53:09;;;;;;;11.83;10.60;;;;;;;17.99;84.50;155986.00;5084102;28;20434;-82
2021/09/09 02:55:45;;;;;;;12.20;10.80;;;;;;;17.97;84.55;155980.81;5063003;28;20443;-82
2021/09/09 02:58:22;;;;;;;11.57;9.60;;;;;;;17.96;84.68;155976.88;5065950;28;20461;-81
2021/09/09 03:00:57;;;;;;;13.43;11.57;;;;;;;17.94;84.83;155973.00;5071877;28;20481;-81
2021/09/09 03:03:33;;;;;;;11.70;10.60;;;;;;;17.92;84.72;155966.50;5071919;28;20479;-81
2021/09/09 03:06:09;;;;;;;12.00;10.60;;;;;;;17.87;85.29;155953.47;5075644;28;20469;-80
2021/09/09 03:08:44;;;;;;;11.93;10.70;;;;;;;17.84;85.63;155946.97;5048495;28;20522;-80
2021/09/09 03:11:20;;;;;;;12.67;11.07;;;;;;;17.77;85.56;155928.69;5068766;28;20470;-80
2021/09/09 03:13:57;;;;;;;12.50;11.33;;;;;;;17.75;85.72;155923.50;5073516;28;20446;-80
2021/09/09 03:16:32;;;;;;;12.20;10.90;;;;;;;17.76;85.87;155926.13;5062627;28;20493;-80
2021/09/09 03:19:08;;;;;;;12.87;11.53;;;;;;;17.72;86.12;155915.69;5067612;28;20474;-80
2021/09/09 03:21:43;;;;;;;12.47;11.20;;;;;;;17.69;86.34;155907.88;5071067;28;20482;-80
2021/09/09 03:24:19;;;;;;;12.43;11.33;;;;;;;17.63;86.48;155893.53;5072070;28;20457;-80
2021/09/09 03:26:54;;;;;;;13.30;12.00;;;;;;;17.67;86.54;155901.38;5072506;28;20481;-80
2021/09/09 03:29:31;;;;;;;13.10;11.80;;;;;;;17.61;87.01;155887.03;5063533;28;20964;-80
2021/09/09 03:32:08;;;;;;;12.90;11.60;;;;;;;17.58;87.11;155880.53;5066722;28;20921;-80
2021/09/09 03:34:43;;;;;;;11.87;10.67;;;;;;;17.53;87.27;155866.22;5070217;28;20466;-80
2021/09/09 03:37:18;;;;;;;12.53;11.23;;;;;;;17.51;87.33;155860.97;5055166;28;20474;-81
2021/09/09 03:39:54;;;;;;;13.63;11.80;;;;;;;17.47;87.76;155850.56;5073778;28;20445;-80
2021/09/09 03:42:30;;;;;;;12.77;11.50;;;;;;;17.49;87.26;155855.78;5060072;28;20443;-80
2021/09/09 03:45:07;;;;;;;12.60;10.63;;;;;;;17.52;87.41;155863.59;5048954;28;20449;-80
2021/09/09 03:47:43;;;;;;;12.10;10.60;;;;;;;17.52;87.16;155864.91;5073606;28;20446;-80
2021/09/09 03:50:18;;;;;;;12.37;11.07;;;;;;;17.49;87.04;155855.78;5071217;28;20470;-80
2021/09/09 03:52:53;;;;;;;12.60;11.40;;;;;;;17.47;87.12;155850.56;5048905;28;20802;-80
2021/09/09 03:55:29;;;;;;;13.90;11.50;;;;;;;17.45;87.61;155845.34;5056526;28;20450;-80
2021/09/09 03:58:05;;;;;;;12.50;11.23;;;;;;;17.43;87.23;155841.44;5065075;28;20470;-80
2021/09/09 04:00:41;;;;;;;13.93;10.97;;;;;;;17.46;87.23;155847.94;5073886;28;20506;-81
2021/09/09 04:03:17;;;;;;;12.63;11.00;;;;;;;17.45;87.00;155845.34;5054775;28;20430;-80
2021/09/09 04:05:52;;;;;;;12.87;11.47;;;;;;;17.45;87.07;155845.34;5069982;28;20929;-80
2021/09/09 04:08:27;;;;;;;12.77;11.47;;;;;;;17.44;87.51;155842.75;5069850;28;20434;-81
2021/09/09 04:11:03;;;;;;;12.20;10.30;;;;;;;17.44;87.22;155842.75;5068079;28;20446;-80
2021/09/09 04:13:39;;;;;;;12.43;10.97;;;;;;;17.41;87.31;155836.25;5069646;28;20446;-80
2021/09/09 04:16:16;;;;;;;12.10;10.87;;;;;;;17.39;87.60;155829.75;5071686;28;20920;-80
2021/09/09 04:18:51;;;;;;;13.40;11.07;;;;;;;17.36;87.54;155821.94;5070897;28;20556;-80
2021/09/09 04:21:27;;;;;;;13.20;11.03;;;;;;;17.36;87.56;155823.25;5071219;28;20441;-81
2021/09/09 04:24:02;;;;;;;12.90;10.67;;;;;;;17.34;87.77;155816.72;5086641;28;20517;-80
2021/09/09 04:26:38;;;;;;;12.03;10.93;;;;;;;17.28;88.20;155801.09;5061600;28;20461;-80
2021/09/09 04:29:13;;;;;;;12.10;10.90;;;;;;;17.29;88.30;155803.72;5071416;28;20830;-80
2021/09/09 04:31:50;;;;;;;12.50;11.23;;;;;;;17.25;88.48;155794.59;5068460;28;20470;-81
2021/09/09 04:34:26;;;;;;;12.90;11.60;;;;;;;17.25;88.32;155793.28;5066477;28;20478;-81
2021/09/09 04:37:02;;;;;;;16.63;12.00;;;;;;;17.26;88.27;155797.16;5054539;28;20457;-80
2021/09/09 04:39:37;;;;;;;13.00;11.00;;;;;;;17.30;87.79;155806.28;5071053;28;20477;-80
2021/09/09 04:42:13;;;;;;;12.53;11.23;;;;;;;17.34;87.46;155816.72;5054504;28;20442;-80
2021/09/09 04:44:48;;;;;;;12.10;10.90;;;;;;;17.34;87.42;155818.00;5060014;28;20532;-80
2021/09/09 04:47:26;;;;;;;11.77;10.57;;;;;;;17.36;87.46;155821.94;5072878;28;20546;-80
2021/09/09 04:50:01;;;;;;;12.30;11.00;;;;;;;17.38;87.35;155827.13;5061567;28;20467;-80
2021/09/09 04:52:37;;;;;;;12.33;11.03;;;;;;;17.39;87.12;155829.75;5071475;28;20477;-80
2021/09/09 04:55:13;;;;;;;11.40;10.27;;;;;;;17.39;87.40;155831.06;5072960;28;20458;-80
2021/09/09 04:57:48;;;;;;;11.50;10.40;;;;;;;17.36;86.90;155823.25;5051302;28;20451;-80
2021/09/09 05:00:24;;;;;;;13.63;10.33;;;;;;;17.30;87.70;155807.63;5070511;28;20453;-80
2021/09/09 05:03:01;;;;;;;11.67;10.40;;;;;;;17.27;87.75;155798.47;5059941;28;20447;-80
2021/09/09 05:05:37;;;;;;;11.77;10.60;;;;;;;17.29;87.94;155805.00;5051082;28;20453;-80
2021/09/09 05:08:12;;;;;;;12.77;11.57;;;;;;;17.30;87.92;155806.28;5065096;28;20454;-80
2021/09/09 05:10:48;;;;;;;11.17;10.07;;;;;;;17.27;87.88;155798.47;5070400;28;20906;-81
2021/09/09 05:13:24;;;;;;;14.83;11.30;;;;;;;17.25;88.19;155793.28;5071417;28;20517;-80
2021/09/09 05:15:59;;;;;;;12.77;11.30;;;;;;;17.27;88.04;155798.47;5066121;28;20434;-80
2021/09/09 05:18:36;;;;;;;12.30;10.70;;;;;;;17.30;88.00;155807.63;5068829;28;20556;-80
2021/09/09 05:21:11;;;;;;;12.47;11.27;;;;;;;17.30;88.07;155806.28;5072726;28;20430;-80
2021/09/09 05:23:47;;;;;;;12.47;10.73;;;;;;;17.32;88.06;155812.81;5060142;28;20890;-81
2021/09/09 05:26:22;;;;;;;11.30;10.30;;;;;;;17.36;87.88;155821.94;5070894;28;20469;-80
2021/09/09 05:28:58;;;;;;;12.53;9.97;;;;;;;17.37;87.91;155825.81;5053901;28;20449;-80
2021/09/09 05:31:33;;;;;;;11.43;10.30;;;;;;;17.41;87.84;155836.25;5071961;28;20438;-80
2021/09/09 05:34:10;;;;;;;12.60;11.30;;;;;;;17.46;87.48;155847.94;5054992;28;20458;-80
2021/09/09 05:36:45;;;;;;;11.10;10.10;;;;;;;17.51;87.09;155860.97;5066400;28;20848;-80
2021/09/09 05:39:21;;;;;;;12.20;11.00;;;;;;;17.57;86.88;155877.97;5061915;28;20493;-81
2021/09/09 05:41:56;;;;;;;13.47;11.67;;;;;;;17.59;86.84;155883.16;5070986;28;20437;-81
2021/09/09 05:44:32;;;;;;;12.10;10.90;;;;;;;17.66;86.54;155900.06;5070903;28;20446;-81
2021/09/09 05:47:08;;;;;;;11.87;10.67;;;;;;;17.68;86.45;155903.97;5067293;28;20466;-81
2021/09/09 05:49:45;;;;;;;11.03;10.00;;;;;;;17.73;86.58;155918.31;5062030;28;20443;-81
2021/09/09 05:52:21;;;;;;;11.93;10.77;;;;;;;17.77;86.61;155928.69;5073975;28;20441;-81
2021/09/09 05:54:56;;;;;;;16.70;11.40;;;;;;;17.89;86.63;155958.66;5071644;28;20453;-81
2021/09/09 05:57:32;;;;;;;11.60;10.50;;;;;;;18.03;86.34;155996.41;5070597;28;20546;-81
2021/09/09 06:00:10;;;;;;;12.57;11.33;;;;;;;18.27;86.09;156058.91;5064544;28;20501;-81
2021/09/09 06:02:48;;;;;;;12.00;10.90;;;;;;;18.52;84.90;156121.50;5074503;28;20544;-81
2021/09/09 06:05:26;;;;;;;11.50;10.40;;;;;;;18.73;83.85;156176.22;5071025;28;20852;-81
2021/09/09 06:08:02;;;;;;;12.00;10.73;;;;;;;18.88;82.72;156215.28;5072379;28;20473;-81
2021/09/09 06:10:38;;;;;;;11.30;10.20;;;;;;;19.07;81.73;156264.81;5063070;28;20442;-81
2021/09/09 06:13:13;;;;;;;12.70;10.87;;;;;;;19.15;80.69;156285.66;5058323;28;20445;-81
2021/09/09 06:15:49;;;;;;;10.90;9.80;;;;;;;19.19;80.12;156296.13;5073164;28;20805;-81
2021/09/09 06:18:24;;;;;;;12.73;11.37;;;;;;;19.24;79.55;156307.84;5072036;28;20446;-81
2021/09/09 06:21:01;;;;;;;12.67;10.93;;;;;;;19.18;79.95;156292.19;5073195;28;20475;-81
2021/09/09 06:23:36;;;;;;;10.40;9.50;;;;;;;19.33;79.93;156332.56;5074144;28;20438;-82
2021/09/09 06:26:12;;;;;;;11.47;10.37;;;;;;;19.48;79.66;156370.44;5073960;28;20486;-80
2021/09/09 06:28:48;;;;;;;11.50;9.80;;;;;;;19.74;79.13;156438.22;5073824;28;20418;-81
2021/09/09 06:31:24;;;;;;;15.50;10.13;;;;;;;20.01;78.19;156508.59;5074286;28;20452;-80
2021/09/09 06:33:59;;;;;;;11.23;10.13;;;;;;;20.19;76.03;156552.97;5055214;28;20450;-80
2021/09/09 06:36:36;;;;;;;11.80;10.70;;;;;;;20.30;75.50;156583.03;5073992;28;20453;-80
2021/09/09 06:39:13;;;;;;;11.07;9.97;;;;;;;20.22;74.95;156562.13;5073926;28;20462;-81
2021/09/09 06:41:49;;;;;;;10.73;9.63;;;;;;;20.29;75.50;156580.41;5053927;28;20458;-81
2021/09/09 06:44:25;;;;;;;11.27;10.17;;;;;;;20.48;75.38;156629.97;5058454;28;20450;-81
2021/09/09 06:47:00;;;;;;;10.63;9.53;;;;;;;20.76;74.11;156700.44;5074322;28;20797;-80
2021/09/09 06:49:36;;;;;;;18.90;10.10;;;;;;;20.87;73.53;156729.09;5068660;28;20442;-81
2021/09/09 06:52:13;;;;;;;11.97;10.77;;;;;;;20.87;72.69;156729.09;5054463;28;20961;-81
2021/09/09 06:54:48;;;;;;;10.90;9.80;;;;;;;20.76;73.49;156700.44;5081063;28;20450;-81
2021/09/09 06:57:24;;;;;;;11.77;10.40;;;;;;;20.91;73.86;156739.56;5072790;28;20442;-81
2021/09/09 07:00:00;;;;;;;12.00;9.93;;;;;;;21.27;73.07;156833.56;5070064;28;20478;-81
2021/09/09 07:02:35;;;;;;;13.07;10.30;;;;;;;21.61;71.75;156922.31;5075264;28;20858;-81
2021/09/09 07:05:12;;;;;;;10.90;9.83;;;;;;;21.98;70.46;157016.38;5070724;28;20545;-81
2021/09/09 07:07:48;;;;;;;11.90;10.90;;;;;;;22.37;69.57;157118.28;5054704;28;20451;-81
2021/09/09 07:10:24;;;;;;;11.00;9.90;;;;;;;22.49;68.39;157149.59;5054556;28;20467;-81
2021/09/09 07:13:00;;;;;;;11.70;10.50;;;;;;;22.63;68.31;157186.25;5075352;28;20450;-81
2021/09/09 07:15:35;;;;;;;11.20;10.20;;;;;;;22.79;66.97;157228.06;5072973;28;20525;-81
2021/09/09 07:18:12;;;;;;;11.07;9.97;;;;;;;23.06;66.99;157297.25;5053749;28;20443;-81
2021/09/09 07:20:47;;;;;;;10.87;9.87;;;;;;;23.40;65.88;157384.91;5053677;28;20506;-82
2021/09/09 07:23:24;;;;;;;10.83;9.83;;;;;;;23.57;64.77;157429.31;5071235;28;20457;-82
2021/09/09 07:25:59;;;;;;;10.20;9.20;;;;;;;23.44;64.41;157395.34;5062902;28;20833;-82
2021/09/09 07:28:35;;;;;;;11.33;10.23;;;;;;;23.53;64.55;157418.88;5063164;28;20528;-82
2021/09/09 07:31:10;;;;;;;11.43;10.23;;;;;;;23.81;64.13;157492.06;5055032;28;20411;-82
2021/09/09 07:33:46;;;;;;;11.33;10.00;;;;;;;24.15;62.88;157579.72;5038516;28;20443;-82
2021/09/09 07:36:21;;;;;;;10.60;9.70;;;;;;;24.41;62.45;157647.72;5082946;28;20897;-82
2021/09/09 07:38:58;;;;;;;10.17;9.27;;;;;;;24.75;61.51;157735.41;5061131;28;20458;-82
2021/09/09 07:41:33;;;;;;;10.33;9.33;;;;;;;24.95;60.76;157786.44;5072225;28;20454;-83
2021/09/09 07:44:09;;;;;;;11.97;10.83;;;;;;;24.99;60.79;157796.94;5060998;28;20450;-83
2021/09/09 07:46:45;;;;;;;11.80;10.27;;;;;;;25.14;59.99;157837.50;5066099;28;20441;-83
2021/09/09 07:49:20;;;;;;;9.60;8.80;;;;;;;25.29;59.50;157876.75;5053116;28;20545;-83
2021/09/09 07:51:56;;;;;;;11.17;10.17;;;;;;;25.53;58.81;157938.31;5053972;28;20454;-83
2021/09/09 07:54:33;;;;;;;10.73;9.83;;;;;;;25.73;58.10;157989.38;5071674;28;20452;-83
2021/09/09 07:57:08;;;;;;;11.00;10.10;;;;;;;25.91;58.40;158036.50;5071279;28;20525;-83
2021/09/09 07:59:43;;;;;;;10.97;9.93;;;;;;;26.11;57.06;158088.84;5066529;28;20812;-83
2021/09/09 08:02:19;;;;;;;11.00;10.03;;;;;;;26.36;56.20;158154.41;5079763;28;20449;-84
2021/09/09 08:04:54;;;;;;;10.90;9.90;;;;;;;26.45;56.35;158176.66;5069515;28;20450;-83
2021/09/09 08:07:30;;;;;;;11.53;10.07;;;;;;;26.72;54.61;158247.34;5053717;28;20443;-83
2021/09/09 08:10:08;;;;;;;10.67;9.57;;;;;;;26.47;55.90;158183.22;5054257;28;20951;-84
2021/09/09 08:12:44;;;;;;;10.33;9.43;;;;;;;26.28;56.80;158132.13;5049378;28;20443;-83
2021/09/09 08:15:20;;;;;;;12.03;9.47;;;;;;;26.34;56.08;158149.16;5079215;28;20450;-84
2021/09/09 08:17:55;;;;;;;15.90;8.60;;;;;;;26.31;55.85;158141.31;5060274;28;20913;-83
2021/09/09 08:20:31;;;;;;;9.53;8.50;;;;;;;26.07;56.35;158078.41;5064244;28;20469;-84
2021/09/09 08:23:06;;;;;;;10.43;9.50;;;;;;;25.88;55.77;158029.94;5071311;28;20437;-83
2021/09/09 08:25:44;;;;;;;8.93;8.23;;;;;;;25.70;55.41;157981.50;5072880;28;20869;-83
2021/09/09 08:28:19;;;;;;;9.30;8.60;;;;;;;25.68;56.06;157976.28;5072840;28;20509;-83
2021/09/09 08:30:55;;;;;;;10.13;9.13;;;;;;;25.86;55.74;158024.72;5070907;28;20461;-83
2021/09/09 08:33:31;;;;;;;9.30;8.40;;;;;;;25.85;55.11;158020.78;5072265;28;20445;-83
2021/09/09 08:36:07;;;;;;;8.93;7.87;;;;;;;25.70;54.59;157981.50;5071710;28;20434;-83
2021/09/09 08:38:42;;;;;;;8.97;8.20;;;;;;;25.40;54.93;157905.53;5072352;28;20430;-83
2021/09/09 08:41:20;;;;;;;9.27;8.37;;;;;;;25.29;55.65;157876.75;5065516;28;20972;-83
2021/09/09 08:44:11;;;;;;;8.87;7.97;;;;;;;25.27;56.60;157870.19;5068660;28;20465;-83
2021/09/09 08:46:46;;;;;;;9.00;8.20;;;;;;;25.42;56.23;157910.75;5066237;28;20435;-83
2021/09/09 08:49:24;;;;;;;9.07;8.17;;;;;;;25.36;56.43;157895.03;5069747;28;20835;-83
2021/09/09 08:52:00;;;;;;;9.53;8.70;;;;;;;25.47;57.33;157921.31;5070526;28;20434;-83
2021/09/09 08:54:35;;;;;;;9.93;9.13;;;;;;;25.63;56.37;157963.19;5069481;28;20855;-83
2021/09/09 08:57:13;;;;;;;10.53;8.47;;;;;;;25.83;56.15;158016.88;5055783;28;20445;-83
2021/09/09 08:59:49;;;;;;;9.00;8.20;;;;;;;25.88;55.01;158028.63;5072983;28;20469;-83
2021/09/09 09:02:26;;;;;;;9.40;8.07;;;;;;;25.98;54.01;158054.81;5052115;28;20438;-83
2021/09/09 09:05:03;;;;;;;9.40;8.60;;;;;;;26.09;53.83;158082.28;5074783;28;20467;-83
2021/09/09 09:07:39;;;;;;;8.80;8.00;;;;;;;25.92;53.53;158040.41;5072333;28;20447;-83
2021/09/09 09:10:15;;;;;;;8.90;8.10;;;;;;;25.85;54.55;158020.78;5069181;28;20470;-83
2021/09/09 09:12:52;;;;;;;9.50;8.70;;;;;;;25.73;54.95;157990.69;5061441;28;20459;-83
2021/09/09 09:15:28;;;;;;;9.03;8.23;;;;;;;25.73;55.24;157989.38;5069922;28;20461;-83
2021/09/09 09:18:08;;;;;;;9.23;8.40;;;;;;;25.84;55.89;158019.44;5071344;28;20438;-83
2021/09/09 09:20:46;;;;;;;9.50;8.60;;;;;;;26.04;54.54;158070.53;5072945;28;20470;-83
2021/09/09 09:23:24;;;;;;;9.00;8.13;;;;;;;25.94;54.28;158045.66;5058841;28;20447;-83
2021/09/09 09:26:03;;;;;;;8.87;8.07;;;;;;;25.92;54.87;158039.13;5073686;28;20465;-84
2021/09/09 09:28:42;;;;;;;9.47;8.47;;;;;;;25.86;54.62;158024.72;5054647;28;20435;-76
2021/09/09 09:31:19;;;;;;;9.73;8.73;;;;;;;25.87;55.85;158026.00;5066156;28;20445;-76
2021/09/09 09:33:56;;;;;;;9.20;8.40;;;;;;;25.85;55.60;158020.78;5072509;28;20438;-76
2021/09/09 09:36:33;;;;;;;10.27;9.27;;;;;;;25.92;56.09;158039.13;5071743;28;20438;-76
2021/09/09 09:39:12;;;;;;;9.87;9.00;;;;;;;26.05;55.57;158071.84;5072816;28;20446;-76
2021/09/09 09:41:58;;;;;;;9.40;8.60;;;;;;;26.18;54.47;158107.25;5068598;28;20540;-76
2021/09/09 09:44:40;;;;;;;9.40;8.60;;;;;;;26.19;55.47;158109.84;5072867;28;20542;-76
2021/09/09 09:47:18;;;;;;;8.57;7.80;;;;;;;26.21;56.43;158115.06;5071502;28;20763;-76
2021/09/09 09:49:54;;;;;;;9.63;8.60;;;;;;;26.31;55.29;158139.97;5085714;28;20470;-75
2021/09/09 09:52:30;;;;;;;9.90;9.00;;;;;;;26.31;54.38;158141.31;5074958;28;20792;-75
2021/09/09 09:55:08;;;;;;;8.60;7.80;;;;;;;26.19;54.76;158109.84;5070784;28;20442;-75
2021/09/09 09:57:51;;;;;;;9.20;8.40;;;;;;;25.94;55.34;158045.66;5070336;28;20536;-75
2021/09/09 10:00:28;;;;;;;9.90;8.90;;;;;;;25.82;55.31;158014.22;5070660;28;20846;-75
2021/09/09 10:03:04;;;;;;;9.67;8.77;;;;;;;25.78;55.54;158002.47;5086652;28;20451;-75
2021/09/09 10:05:40;;;;;;;9.40;8.67;;;;;;;25.68;55.85;157976.28;5067979;28;20473;-75
2021/09/09 10:08:15;;;;;;;9.17;8.47;;;;;;;25.74;56.34;157993.28;5071165;28;20477;-75
2021/09/09 10:10:51;;;;;;;9.47;8.63;;;;;;;25.74;56.47;157993.28;5060675;28;20894;-75
2021/09/09 10:13:26;;;;;;;10.13;9.17;;;;;;;25.75;56.30;157995.91;5067107;28;20435;-75
2021/09/09 10:16:04;;;;;;;9.93;8.93;;;;;;;25.77;57.25;157999.81;5054621;28;20415;-75
2021/09/09 10:18:40;;;;;;;9.27;8.47;;;;;;;25.85;56.87;158020.78;5073505;28;20474;-75
2021/09/09 10:21:39;;;;;;;9.77;8.87;;;;;;;26.11;55.73;158087.53;5064866;28;20461;-75
2021/09/09 10:24:18;;;;;;;9.20;8.40;;;;;;;26.24;54.71;158121.66;5074123;28;20450;-75
2021/09/09 10:27:23;;;;;;;8.60;7.77;;;;;;;26.22;55.03;158116.38;5067640;28;20473;-75
2021/09/09 10:30:01;;;;;;;9.63;8.77;;;;;;;26.28;55.13;158133.44;5046567;28;20812;-75
2021/09/09 10:32:54;;;;;;;10.40;9.23;;;;;;;26.23;55.30;158119.03;5076741;28;20929;-75
2021/09/09 10:35:39;;;;;;;9.27;8.47;;;;;;;26.23;55.21;158120.34;5068375;28;20446;-75
2021/09/09 10:38:29;;;;;;;8.50;7.80;;;;;;;26.32;54.66;158143.88;5078278;28;20533;-75
2021/09/09 10:41:05;;;;;;;8.83;8.03;;;;;;;26.23;55.09;158120.34;5071294;28;20952;-75
2021/09/09 10:43:46;;;;;;;10.23;7.87;;;;;;;26.19;53.21;158109.84;5072894;28;20441;-75
2021/09/09 10:46:30;;;;;;;7.93;7.17;;;;;;;26.21;53.24;158113.81;5054263;28;20419;-75
2021/09/09 10:49:20;;;;;;;8.47;7.77;;;;;;;26.22;52.71;158117.72;5057456;28;20443;-75
2021/09/09 10:52:10;;;;;;;8.43;7.70;;;;;;;26.40;52.54;158164.84;5053555;28;20431;-75
2021/09/09 10:55:04;;;;;;;7.83;7.17;;;;;;;26.33;53.15;158145.22;5050497;28;20443;-75
2021/09/09 10:57:40;;;;;;;8.87;8.07;;;;;;;26.42;52.26;158168.81;5065590;28;20549;-75
2021/09/09 11:00:16;;;;;;;8.00;7.40;;;;;;;26.26;53.11;158126.88;5067340;28;20498;-75
2021/09/09 11:02:52;;;;;;;8.03;7.27;;;;;;;26.19;53.42;158109.84;5062317;28;20501;-75
2021/09/09 11:05:30;;;;;;;8.50;7.80;;;;;;;26.25;54.35;158125.56;5058087;28;20458;-75
2021/09/09 11:08:05;;;;;;;8.30;7.63;;;;;;;26.31;53.65;158141.31;5064919;28;20450;-75
2021/09/09 11:10:41;;;;;;;9.20;7.40;;;;;;;26.31;53.82;158141.31;5071986;28;20434;-75
2021/09/09 11:13:26;;;;;;;7.90;7.20;;;;;;;26.34;54.58;158149.16;5068097;28;20441;-75
2021/09/09 11:16:02;;;;;;;7.80;7.10;;;;;;;26.42;53.83;158168.81;5073100;28;20832;-75
2021/09/09 11:18:37;;;;;;;8.43;7.70;;;;;;;26.44;53.70;158174.03;5056101;28;20917;-75
2021/09/09 11:21:17;;;;;;;7.70;6.90;;;;;;;26.37;52.94;158155.72;5077884;28;20470;-75
2021/09/09 11:23:58;;;;;;;7.40;6.70;;;;;;;26.29;53.94;158134.75;5077799;28;20536;-75
2021/09/09 11:26:34;;;;;;;7.57;6.97;;;;;;;26.30;53.62;158138.66;5079167;28;20474;-75
2021/09/09 11:29:10;;;;;;;8.70;7.90;;;;;;;26.32;53.94;158142.56;5086389;28;20454;-75
2021/09/09 11:31:47;;;;;;;8.13;6.90;;;;;;;26.33;53.35;158146.53;5068875;28;20442;-75
2021/09/09 11:34:24;;;;;;;9.03;7.10;;;;;;;26.35;53.68;158150.44;5071088;28;20454;-75
2021/09/09 11:37:02;;;;;;;7.80;7.00;;;;;;;26.35;53.23;158150.44;5066254;28;20852;-75
2021/09/09 11:39:37;;;;;;;7.60;6.90;;;;;;;26.33;53.88;158145.22;5078702;28;20450;-75
2021/09/09 11:42:13;;;;;;;7.07;6.23;;;;;;;26.39;54.41;158160.94;5072631;28;20458;-75
2021/09/09 11:44:58;;;;;;;9.33;8.43;;;;;;;26.38;53.96;158159.63;5070462;28;20553;-75
2021/09/09 11:47:34;;;;;;;8.50;7.70;;;;;;;26.37;53.75;158155.72;5056731;28;20458;-75
2021/09/09 11:50:10;;;;;;;7.80;7.20;;;;;;;26.36;53.44;158154.41;5064879;28;20455;-75
2021/09/09 11:53:00;;;;;;;7.20;6.60;;;;;;;26.46;53.04;158180.56;5054084;28;20538;-75
2021/09/09 11:55:37;;;;;;;7.43;6.73;;;;;;;26.44;53.28;158174.03;5054514;28;20890;-75
2021/09/09 11:58:31;;;;;;;9.00;7.47;;;;;;;26.60;53.23;158217.25;5054123;28;20445;-75